createdAt,value
2023-09-30T00:01:29.557Z,3.40
2023-09-30T00:03:56.960Z,3.42
2023-09-30T00:06:24.500Z,3.38
2023-09-30T00:08:51.722Z,3.17
2023-09-30T00:11:19.630Z,3.10
2023-09-30T00:13:46.999Z,2.95
2023-09-30T00:16:14.696Z,2.97
2023-09-30T00:18:42.627Z,3.00
2023-09-30T00:21:09.982Z,2.80
2023-09-30T00:23:37.189Z,3.20
2023-09-30T00:26:04.448Z,3.20
2023-09-30T00:28:31.561Z,3.42
2023-09-30T00:30:59.150Z,2.60
2023-09-30T00:33:26.785Z,3.00
2023-09-30T00:35:53.982Z,3.00
2023-09-30T00:38:21.138Z,3.88
2023-09-30T00:40:49.216Z,3.17
2023-09-30T00:43:22.799Z,3.10
2023-09-30T00:45:50.624Z,3.20
2023-09-30T00:48:18.491Z,3.08
2023-09-30T00:50:45.847Z,3.40
2023-09-30T00:53:13.067Z,3.55
2023-09-30T00:55:40.281Z,3.55
2023-09-30T00:58:08.271Z,3.35
2023-09-30T01:00:35.458Z,3.58
2023-09-30T01:03:05.490Z,3.50
2023-09-30T01:05:33.318Z,3.28
2023-09-30T01:08:03.954Z,3.33
2023-09-30T01:10:31.184Z,3.08
2023-09-30T01:12:58.782Z,3.15
2023-09-30T01:15:25.962Z,4.00
2023-09-30T01:17:53.142Z,3.53
2023-09-30T01:20:23.444Z,4.22
2023-09-30T01:22:50.701Z,3.83
2023-09-30T01:25:17.941Z,4.63
2023-09-30T01:27:45.032Z,4.45
2023-09-30T01:30:12.564Z,4.00
2023-09-30T01:32:39.769Z,4.03
2023-09-30T01:35:07.284Z,4.75
2023-09-30T01:37:34.455Z,4.60
2023-09-30T01:40:01.721Z,4.50
2023-09-30T01:42:29.016Z,5.35
2023-09-30T01:44:57.827Z,4.68
2023-09-30T01:47:25.007Z,5.03
2023-09-30T01:49:52.174Z,4.63
2023-09-30T01:52:19.424Z,4.65
2023-09-30T01:54:46.681Z,5.13
2023-09-30T01:57:13.990Z,5.95
2023-09-30T01:59:41.217Z,5.50
2023-09-30T02:02:09.369Z,7.65
2023-09-30T02:04:36.529Z,7.28
2023-09-30T02:07:03.749Z,7.07
2023-09-30T02:09:30.897Z,6.93
2023-09-30T02:11:58.099Z,7.57
2023-09-30T02:14:25.891Z,7.30
2023-09-30T02:16:53.062Z,7.90
2023-09-30T02:19:21.092Z,7.18
2023-09-30T02:21:48.690Z,7.65
2023-09-30T02:24:16.446Z,7.18
2023-09-30T02:26:44.444Z,7.55
2023-09-30T02:29:11.606Z,7.38
2023-09-30T02:31:38.897Z,7.00
2023-09-30T02:34:06.137Z,7.65
2023-09-30T02:36:33.288Z,6.97
2023-09-30T02:39:02.069Z,7.18
2023-09-30T02:41:30.265Z,6.57
2023-09-30T02:43:57.560Z,7.00
2023-09-30T02:46:24.900Z,7.60
2023-09-30T02:48:53.246Z,8.18
2023-09-30T02:51:21.643Z,8.50
2023-09-30T02:53:51.575Z,8.52
2023-09-30T02:56:20.471Z,8.13
2023-09-30T02:58:47.925Z,8.20
2023-09-30T03:01:18.663Z,8.32
2023-09-30T03:03:46.084Z,8.13
2023-09-30T03:06:13.377Z,7.95
2023-09-30T03:08:41.944Z,8.07
2023-09-30T03:11:09.174Z,7.63
2023-09-30T03:13:36.353Z,7.70
2023-09-30T03:16:03.862Z,7.53
2023-09-30T03:18:32.161Z,8.20
2023-09-30T03:21:02.929Z,7.75
2023-09-30T03:23:31.675Z,8.82
2023-09-30T03:25:59.351Z,8.32
2023-09-30T03:28:26.534Z,8.35
2023-09-30T03:30:53.951Z,8.75
2023-09-30T03:33:21.292Z,7.60
2023-09-30T03:35:48.522Z,8.57
2023-09-30T03:38:16.739Z,9.02
2023-09-30T03:40:50.271Z,9.07
2023-09-30T03:43:18.216Z,8.07
2023-09-30T03:45:46.332Z,8.95
2023-09-30T03:48:13.656Z,9.32
2023-09-30T03:50:40.838Z,9.02
2023-09-30T03:53:10.892Z,8.82
2023-09-30T03:55:38.605Z,8.32
2023-09-30T03:58:05.757Z,8.98
2023-09-30T04:00:33.118Z,8.40
2023-09-30T04:03:00.465Z,8.50
2023-09-30T04:05:30.877Z,8.27
2023-09-30T04:07:58.312Z,9.13
2023-09-30T04:10:26.214Z,8.48
2023-09-30T04:12:53.940Z,8.35
2023-09-30T04:15:21.138Z,8.63
2023-09-30T04:17:49.242Z,9.70
2023-09-30T04:20:24.144Z,8.82
2023-09-30T04:22:51.905Z,10.82
2023-09-30T04:25:19.513Z,11.20
2023-09-30T04:27:49.505Z,10.00
2023-09-30T04:30:18.026Z,9.55
2023-09-30T04:32:45.352Z,11.23
2023-09-30T04:35:13.134Z,11.70
2023-09-30T04:37:40.403Z,11.88
2023-09-30T04:40:08.826Z,11.63
2023-09-30T04:42:37.683Z,10.98
2023-09-30T04:45:08.565Z,11.90
2023-09-30T04:47:35.910Z,12.02
2023-09-30T04:50:08.519Z,11.57
2023-09-30T04:52:39.730Z,11.55
2023-09-30T04:55:07.049Z,12.00
2023-09-30T04:57:34.298Z,11.68
2023-09-30T05:00:01.607Z,11.73
2023-09-30T05:02:29.550Z,11.77
2023-09-30T05:04:56.808Z,10.70
2023-09-30T05:07:24.084Z,10.57
2023-09-30T05:09:51.384Z,10.70
2023-09-30T05:12:18.743Z,10.55
2023-09-30T05:14:46.002Z,10.70
2023-09-30T05:17:14.347Z,10.15
2023-09-30T05:19:41.553Z,9.65
2023-09-30T05:22:08.727Z,8.93
2023-09-30T05:24:36.443Z,11.13
2023-09-30T05:27:03.738Z,10.02
2023-09-30T05:29:34.412Z,10.07
2023-09-30T05:32:01.596Z,9.38
2023-09-30T05:34:29.113Z,9.63
2023-09-30T05:36:56.405Z,10.00
2023-09-30T05:39:23.570Z,9.98
2023-09-30T05:41:50.780Z,9.73
2023-09-30T05:44:17.873Z,9.90
2023-09-30T05:46:46.720Z,8.88
2023-09-30T05:49:15.001Z,11.27
2023-09-30T05:51:42.483Z,9.73
2023-09-30T05:54:13.076Z,9.98
2023-09-30T05:56:43.599Z,10.18
2023-09-30T05:59:11.022Z,9.32
2023-09-30T06:01:39.110Z,9.95
2023-09-30T06:04:06.413Z,10.13
2023-09-30T06:06:34.111Z,9.57
2023-09-30T06:09:01.430Z,9.85
2023-09-30T06:11:31.359Z,10.13
2023-09-30T06:14:00.239Z,10.15
2023-09-30T06:16:27.631Z,10.05
2023-09-30T06:18:55.504Z,10.13
2023-09-30T06:21:23.142Z,10.75
2023-09-30T06:23:52.057Z,10.65
2023-09-30T06:26:19.504Z,10.10
2023-09-30T06:28:46.607Z,9.32
2023-09-30T06:31:13.886Z,9.63
2023-09-30T06:33:41.725Z,9.65
2023-09-30T06:36:12.417Z,9.85
2023-09-30T06:38:39.527Z,10.50
2023-09-30T06:41:06.759Z,9.68
2023-09-30T06:43:36.057Z,9.82
2023-09-30T06:46:14.158Z,10.40
2023-09-30T06:48:44.237Z,9.77
2023-09-30T06:51:16.139Z,9.02
2023-09-30T06:53:43.320Z,9.13
2023-09-30T06:56:10.486Z,8.45
2023-09-30T06:58:37.657Z,8.85
2023-09-30T07:01:04.837Z,8.15
2023-09-30T07:03:34.096Z,8.43
2023-09-30T07:06:01.791Z,9.32
2023-09-30T07:08:32.292Z,8.60
2023-09-30T07:10:59.545Z,8.55
2023-09-30T07:13:26.722Z,7.20
2023-09-30T07:15:54.097Z,8.38
2023-09-30T07:18:21.380Z,7.35
2023-09-30T07:20:48.678Z,8.40
2023-09-30T07:23:19.734Z,8.40
2023-09-30T07:25:48.332Z,7.30
2023-09-30T07:28:15.601Z,7.43
2023-09-30T07:30:42.938Z,7.80
2023-09-30T07:33:10.287Z,8.15
2023-09-30T07:35:37.839Z,6.38
2023-09-30T07:38:05.592Z,6.55
2023-09-30T07:40:33.824Z,6.50
2023-09-30T07:43:01.084Z,6.95
2023-09-30T07:45:29.224Z,6.57
2023-09-30T07:47:56.734Z,6.57
2023-09-30T07:50:24.010Z,6.60
2023-09-30T07:52:51.301Z,6.53
2023-09-30T07:55:18.662Z,6.75
2023-09-30T07:57:47.270Z,6.07
2023-09-30T08:00:18.428Z,5.57
2023-09-30T08:02:46.446Z,6.25
2023-09-30T08:05:14.030Z,5.82
2023-09-30T08:07:41.570Z,6.93
2023-09-30T08:10:14.141Z,6.55
2023-09-30T08:12:42.483Z,6.35
2023-09-30T08:15:12.852Z,6.50
2023-09-30T08:17:40.307Z,6.32
2023-09-30T08:20:07.877Z,7.35
2023-09-30T08:22:35.014Z,6.57
2023-09-30T08:25:02.208Z,6.10
2023-09-30T08:27:29.401Z,7.10
2023-09-30T08:29:56.594Z,5.60
2023-09-30T08:32:23.701Z,6.07
2023-09-30T08:34:50.822Z,5.53
2023-09-30T08:37:18.018Z,5.70
2023-09-30T08:39:45.270Z,5.25
2023-09-30T08:42:12.687Z,5.65
2023-09-30T08:44:40.705Z,4.75
2023-09-30T08:47:11.806Z,5.45
2023-09-30T08:49:42.982Z,5.35
2023-09-30T08:52:11.655Z,5.50
2023-09-30T08:54:39.867Z,5.28
2023-09-30T08:57:08.825Z,5.43
2023-09-30T08:59:37.154Z,5.90
2023-09-30T09:02:10.018Z,6.05
2023-09-30T09:04:37.980Z,5.82
2023-09-30T09:07:05.527Z,5.38
2023-09-30T09:09:33.476Z,5.25
2023-09-30T09:12:00.792Z,5.28
2023-09-30T09:14:41.102Z,4.75
2023-09-30T09:17:09.258Z,4.55
2023-09-30T09:19:36.535Z,4.40
2023-09-30T09:22:05.909Z,5.00
2023-09-30T09:24:33.925Z,4.40
2023-09-30T09:27:07.866Z,4.70
2023-09-30T09:29:35.667Z,4.85
2023-09-30T09:32:10.123Z,4.03
2023-09-30T09:34:37.455Z,3.97
2023-09-30T09:37:17.875Z,4.45
2023-09-30T09:39:58.652Z,4.72
2023-09-30T09:42:38.124Z,4.82
2023-09-30T09:45:06.793Z,4.60
2023-09-30T09:47:35.276Z,4.50
2023-09-30T09:50:04.470Z,3.72
2023-09-30T09:52:31.853Z,4.78
2023-09-30T09:54:59.407Z,4.28
2023-09-30T09:57:27.888Z,4.22
2023-09-30T09:59:59.196Z,5.45
2023-09-30T10:02:28.966Z,4.25
2023-09-30T10:04:57.351Z,4.07
2023-09-30T10:07:27.783Z,4.43
2023-09-30T10:09:55.198Z,4.15
2023-09-30T10:12:22.929Z,4.10
2023-09-30T10:14:50.139Z,4.03
2023-09-30T10:17:17.731Z,4.55
2023-09-30T10:20:06.152Z,4.50
2023-09-30T10:22:33.319Z,4.50
2023-09-30T10:25:01.098Z,4.65
2023-09-30T10:27:37.930Z,4.93
2023-09-30T10:30:14.776Z,4.30
2023-09-30T10:32:54.765Z,4.55
2023-09-30T10:35:23.237Z,4.13
2023-09-30T10:37:50.354Z,4.53
2023-09-30T10:40:30.616Z,4.82
2023-09-30T10:42:58.424Z,4.20
2023-09-30T10:45:41.083Z,4.82
2023-09-30T10:48:27.022Z,4.32
2023-09-30T10:50:59.918Z,4.38
2023-09-30T10:53:28.416Z,4.85
2023-09-30T10:55:56.509Z,4.85
2023-09-30T10:58:23.690Z,4.55
2023-09-30T11:00:55.478Z,5.13
2023-09-30T11:03:23.754Z,4.82
2023-09-30T11:06:11.607Z,5.10
2023-09-30T11:08:39.410Z,4.60
2023-09-30T11:11:06.606Z,4.97
2023-09-30T11:13:37.285Z,5.82
2023-09-30T11:16:05.974Z,4.90
2023-09-30T11:18:33.771Z,5.60
2023-09-30T11:21:08.557Z,5.32
2023-09-30T11:23:36.522Z,4.78
2023-09-30T11:26:03.884Z,4.45
2023-09-30T11:28:38.801Z,4.60
2023-09-30T11:31:09.058Z,5.57
2023-09-30T11:33:49.458Z,6.88
2023-09-30T11:36:16.966Z,6.55
2023-09-30T11:38:48.992Z,6.40
2023-09-30T11:41:16.396Z,6.00
2023-09-30T11:44:01.541Z,5.38
2023-09-30T11:46:29.093Z,5.40
2023-09-30T11:49:01.184Z,5.05
2023-09-30T11:51:29.766Z,6.28
2023-09-30T11:53:58.746Z,5.43
2023-09-30T11:56:30.319Z,6.03
2023-09-30T11:58:58.367Z,5.43
2023-09-30T12:01:26.479Z,6.90
2023-09-30T12:03:58.525Z,4.93
2023-09-30T12:06:26.213Z,5.75
2023-09-30T12:08:53.730Z,4.80
2023-09-30T12:11:21.397Z,6.22
2023-09-30T12:13:50.099Z,5.90
2023-09-30T12:16:17.961Z,5.90
2023-09-30T12:18:45.399Z,5.47
2023-09-30T12:21:14.503Z,6.03
2023-09-30T12:23:42.894Z,6.03
2023-09-30T12:26:14.386Z,6.25
2023-09-30T12:31:11.879Z,5.55
2023-09-30T12:33:39.306Z,5.90
2023-09-30T12:36:06.597Z,5.55
2023-09-30T12:38:33.713Z,5.68
2023-09-30T12:41:01.621Z,6.20
2023-09-30T12:43:28.828Z,6.28
2023-09-30T12:45:56.243Z,6.20
2023-09-30T12:48:23.562Z,6.18
2023-09-30T12:50:50.681Z,5.90
2023-09-30T12:53:17.862Z,5.47
2023-09-30T12:55:45.061Z,5.13
2023-09-30T12:58:12.880Z,6.20
2023-09-30T13:00:40.122Z,10.93
2023-09-30T13:03:08.902Z,6.43
2023-09-30T13:05:36.096Z,16.30
2023-09-30T13:08:03.331Z,6.22
2023-09-30T13:10:31.489Z,5.88
2023-09-30T13:12:58.942Z,6.25
2023-09-30T13:15:27.535Z,5.88
2023-09-30T13:17:54.840Z,5.88
2023-09-30T13:20:22.170Z,7.53
2023-09-30T13:22:49.295Z,5.55
2023-09-30T13:25:17.374Z,5.53
2023-09-30T13:27:44.678Z,6.40
2023-09-30T13:30:12.032Z,10.65
2023-09-30T13:32:39.311Z,6.03
2023-09-30T13:35:07.110Z,6.03
2023-09-30T13:37:34.455Z,5.50
2023-09-30T13:40:02.956Z,6.40
2023-09-30T13:42:30.213Z,5.82
2023-09-30T13:45:00.377Z,6.50
2023-09-30T13:47:27.617Z,5.95
2023-09-30T13:49:56.144Z,6.30
2023-09-30T13:52:23.460Z,5.88
2023-09-30T13:54:50.686Z,5.93
2023-09-30T13:57:17.944Z,5.82
2023-09-30T13:59:45.056Z,6.07
2023-09-30T14:02:12.436Z,6.35
2023-09-30T14:04:39.725Z,6.15
2023-09-30T14:07:07.666Z,6.10
2023-09-30T14:09:36.529Z,6.65
2023-09-30T14:12:05.497Z,6.40
2023-09-30T14:14:34.230Z,6.65
2023-09-30T14:17:08.219Z,6.72
2023-09-30T14:19:35.944Z,6.75
2023-09-30T14:22:05.208Z,6.28
2023-09-30T14:24:34.306Z,5.75
2023-09-30T14:27:02.252Z,6.07
2023-09-30T14:29:29.480Z,5.68
2023-09-30T14:31:57.639Z,5.63
2023-09-30T14:34:25.230Z,5.30
2023-09-30T14:36:52.795Z,5.55
2023-09-30T14:39:20.807Z,5.45
2023-09-30T14:41:48.010Z,5.40
2023-09-30T14:44:15.187Z,4.85
2023-09-30T14:46:42.660Z,5.60
2023-09-30T14:49:10.013Z,5.65
2023-09-30T14:51:37.625Z,5.32
2023-09-30T14:54:05.440Z,6.30
2023-09-30T14:56:32.780Z,5.63
2023-09-30T14:59:01.295Z,5.80
2023-09-30T15:01:28.731Z,5.75
2023-09-30T15:03:56.094Z,6.20
2023-09-30T15:06:25.599Z,6.50
2023-09-30T15:08:52.785Z,5.57
2023-09-30T15:11:19.971Z,6.72
2023-09-30T15:13:47.349Z,5.80
2023-09-30T15:16:19.621Z,6.13
2023-09-30T15:18:48.085Z,6.15
2023-09-30T15:21:15.514Z,6.07
2023-09-30T15:23:43.374Z,5.95
2023-09-30T15:26:11.558Z,5.93
2023-09-30T15:28:39.214Z,5.85
2023-09-30T15:31:07.824Z,6.20
2023-09-30T15:33:35.686Z,6.43
2023-09-30T15:36:18.225Z,6.07
2023-09-30T15:38:46.757Z,5.50
2023-09-30T15:41:14.537Z,6.40
2023-09-30T15:43:41.700Z,5.82
2023-09-30T15:46:12.106Z,6.10
2023-09-30T15:48:39.569Z,6.05
2023-09-30T15:51:07.034Z,5.97
2023-09-30T15:53:36.911Z,6.28
2023-09-30T15:56:04.675Z,6.03
2023-09-30T15:58:31.906Z,5.78
2023-09-30T16:00:59.152Z,7.68
2023-09-30T16:03:26.643Z,8.50
2023-09-30T16:05:53.953Z,6.68
2023-09-30T16:08:21.157Z,6.32
2023-09-30T16:10:48.455Z,6.25
2023-09-30T16:13:15.818Z,5.75
2023-09-30T16:15:44.006Z,6.20
2023-09-30T16:18:11.841Z,5.78
2023-09-30T16:20:39.539Z,5.78
2023-09-30T16:23:06.690Z,5.95
2023-09-30T16:25:37.960Z,6.00
2023-09-30T16:28:06.368Z,6.32
2023-09-30T16:30:33.969Z,6.07
2023-09-30T16:33:01.303Z,6.00
2023-09-30T16:35:30.790Z,5.97
2023-09-30T16:37:58.136Z,5.68
2023-09-30T16:40:25.371Z,5.63
2023-09-30T16:42:52.596Z,6.00
2023-09-30T16:45:19.771Z,6.00
2023-09-30T16:47:46.907Z,6.35
2023-09-30T16:50:14.103Z,6.57
2023-09-30T16:52:41.274Z,6.57
2023-09-30T16:55:08.688Z,6.60
2023-09-30T16:57:35.981Z,6.63
2023-09-30T17:00:04.561Z,6.60
2023-09-30T17:02:31.878Z,5.97
2023-09-30T17:05:03.714Z,7.03
2023-09-30T17:07:30.929Z,6.67
2023-09-30T17:09:58.320Z,6.32
2023-09-30T17:12:26.326Z,6.80
2023-09-30T17:14:55.740Z,6.47
2023-09-30T17:17:23.609Z,6.53
2023-09-30T17:19:50.739Z,6.57
2023-09-30T17:22:18.842Z,6.68
2023-09-30T17:24:46.281Z,6.20
2023-09-30T17:27:13.527Z,5.78
2023-09-30T17:29:40.744Z,6.85
2023-09-30T17:32:08.655Z,8.55
2023-09-30T17:34:39.073Z,10.05
2023-09-30T17:37:06.667Z,12.13
2023-09-30T17:39:34.324Z,11.40
2023-09-30T17:42:01.493Z,9.75
2023-09-30T17:44:29.056Z,8.60
2023-09-30T17:46:56.369Z,7.57
2023-09-30T17:49:23.610Z,7.40
2023-09-30T17:51:50.872Z,6.47
2023-09-30T17:54:18.210Z,6.43
2023-09-30T17:56:45.441Z,7.35
2023-09-30T17:59:13.285Z,7.90
2023-09-30T18:01:40.726Z,10.88
2023-09-30T18:04:08.400Z,9.07
2023-09-30T18:06:35.848Z,8.68
2023-09-30T18:09:03.065Z,8.57
2023-09-30T18:11:30.366Z,8.77
2023-09-30T18:13:57.862Z,8.13
2023-09-30T18:16:25.683Z,7.55
2023-09-30T18:18:53.166Z,8.48
2023-09-30T18:21:20.688Z,7.35
2023-09-30T18:23:48.123Z,8.07
2023-09-30T18:26:15.302Z,7.82
2023-09-30T18:28:42.752Z,7.60
2023-09-30T18:31:12.163Z,7.63
2023-09-30T18:33:39.534Z,7.38
2023-09-30T18:36:09.980Z,7.32
2023-09-30T18:38:37.162Z,7.53
2023-09-30T18:41:12.899Z,8.57
2023-09-30T18:43:40.051Z,8.95
2023-09-30T18:46:10.790Z,8.90
2023-09-30T18:48:38.242Z,8.93
2023-09-30T18:51:05.431Z,9.02
2023-09-30T18:53:32.678Z,8.82
2023-09-30T18:55:59.962Z,8.80
2023-09-30T18:58:27.142Z,8.50
2023-09-30T19:00:54.516Z,9.70
2023-09-30T19:03:21.804Z,9.35
2023-09-30T19:05:54.713Z,10.50
2023-09-30T19:08:23.907Z,11.00
2023-09-30T19:10:51.537Z,11.70
2023-09-30T19:13:19.045Z,9.52
2023-09-30T19:15:47.154Z,9.18
2023-09-30T19:18:14.771Z,10.43
2023-09-30T19:20:47.449Z,8.77
2023-09-30T19:23:15.285Z,8.35
2023-09-30T19:25:42.413Z,8.70
2023-09-30T19:28:09.708Z,9.30
2023-09-30T19:30:36.904Z,8.70
2023-09-30T19:33:04.260Z,8.85
2023-09-30T19:35:31.579Z,8.20
2023-09-30T19:37:58.744Z,8.02
2023-09-30T19:40:25.906Z,8.10
2023-09-30T19:42:53.052Z,7.22
2023-09-30T19:45:20.513Z,8.30
2023-09-30T19:47:47.711Z,8.23
2023-09-30T19:50:14.939Z,8.10
2023-09-30T19:52:42.037Z,8.57
2023-09-30T19:55:09.872Z,8.63
2023-09-30T19:57:37.060Z,8.43
2023-09-30T20:00:06.105Z,9.50
2023-09-30T20:02:33.413Z,10.20
2023-09-30T20:05:00.586Z,12.13
2023-09-30T20:07:27.792Z,15.13
2023-09-30T20:09:54.991Z,15.05
2023-09-30T20:12:23.329Z,13.25
2023-09-30T20:14:50.429Z,13.50
2023-09-30T20:17:17.670Z,11.63
2023-09-30T20:19:44.869Z,10.35
2023-09-30T20:22:12.072Z,9.07
2023-09-30T20:24:39.393Z,8.70
2023-09-30T20:27:06.651Z,9.23
2023-09-30T20:29:33.871Z,8.30
2023-09-30T20:32:01.188Z,9.38
2023-09-30T20:34:29.469Z,8.98
2023-09-30T20:36:56.786Z,8.82
2023-09-30T20:39:24.012Z,8.77
2023-09-30T20:41:51.510Z,8.65
2023-09-30T20:44:19.136Z,8.00
2023-09-30T20:46:48.447Z,7.50
2023-09-30T20:49:16.198Z,9.32
2023-09-30T20:51:43.514Z,9.38
2023-09-30T20:54:10.890Z,9.70
2023-09-30T20:56:38.151Z,9.20
2023-09-30T20:59:07.091Z,8.57
2023-09-30T21:01:35.175Z,9.07
2023-09-30T21:04:02.836Z,9.25
2023-09-30T21:06:30.326Z,8.85
2023-09-30T21:08:57.868Z,8.88
2023-09-30T21:11:25.336Z,9.80
2023-09-30T21:13:52.897Z,10.02
2023-09-30T21:16:22.407Z,10.70
2023-09-30T21:18:51.231Z,9.73
2023-09-30T21:21:18.436Z,10.25
2023-09-30T21:23:45.514Z,10.52
2023-09-30T21:26:16.693Z,8.70
2023-09-30T21:28:46.142Z,9.20
2023-09-30T21:31:20.139Z,9.30
2023-09-30T21:33:48.186Z,8.10
2023-09-30T21:36:16.135Z,8.10
2023-09-30T21:38:43.638Z,8.48
2023-09-30T21:41:20.157Z,8.02
2023-09-30T21:43:47.380Z,8.20
2023-09-30T21:46:14.676Z,8.23
2023-09-30T21:48:42.553Z,8.45
2023-09-30T21:51:10.066Z,8.88
2023-09-30T21:53:37.274Z,7.97
2023-09-30T21:56:05.294Z,8.15
2023-09-30T21:58:32.874Z,8.88
2023-09-30T22:01:00.358Z,8.25
2023-09-30T22:03:28.992Z,9.02
2023-09-30T22:05:56.879Z,8.32
2023-09-30T22:08:24.991Z,8.35
2023-09-30T22:10:54.369Z,8.70
2023-09-30T22:13:22.260Z,8.90
2023-09-30T22:15:49.542Z,7.97
2023-09-30T22:18:17.359Z,8.38
2023-09-30T22:20:44.588Z,8.02
2023-09-30T22:23:11.781Z,8.68
2023-09-30T22:25:39.202Z,7.68
2023-09-30T22:28:08.989Z,8.30
2023-09-30T22:30:37.729Z,8.27
2023-09-30T22:33:06.845Z,6.90
2023-09-30T22:35:34.546Z,7.60
2023-09-30T22:38:02.223Z,7.43
2023-09-30T22:40:29.408Z,8.18
2023-09-30T22:42:57.866Z,7.65
2023-09-30T22:45:25.084Z,7.88
2023-09-30T22:47:54.043Z,8.43
2023-09-30T22:50:22.037Z,7.88
2023-09-30T22:52:49.950Z,8.13
2023-09-30T22:55:18.202Z,7.53
2023-09-30T22:57:46.461Z,7.35
2023-09-30T23:00:16.404Z,8.00
2023-09-30T23:02:44.278Z,7.75
2023-09-30T23:05:12.625Z,7.82
2023-09-30T23:07:42.930Z,7.60
2023-09-30T23:10:12.320Z,7.40
2023-09-30T23:12:40.111Z,7.82
2023-09-30T23:15:11.715Z,7.22
2023-09-30T23:17:43.094Z,7.82
2023-09-30T23:20:16.209Z,8.07
2023-09-30T23:22:50.056Z,6.72
2023-09-30T23:25:19.736Z,7.47
2023-09-30T23:27:47.977Z,7.55
2023-09-30T23:30:18.959Z,7.45
2023-09-30T23:32:51.106Z,7.15
2023-09-30T23:35:22.316Z,6.88
2023-09-30T23:37:58.836Z,7.55
2023-09-30T23:40:26.344Z,7.20
2023-09-30T23:42:58.414Z,7.20
2023-09-30T23:45:35.075Z,7.43
2023-09-30T23:48:03.047Z,7.45
2023-09-30T23:50:30.947Z,7.35
2023-09-30T23:52:59.553Z,7.18
2023-09-30T23:55:28.893Z,6.05
2023-09-30T23:57:56.813Z,6.80
